Yemassee, SC (29945)

12:00 PM EDT on October 30, 2014 (GMT -0400)
RAWS SAVANNAH PORTABLE SC US | Change Station
CLOSE
Current Station
Personal Weather Station
Location: Yemassee, SC
Elevation: 6 ft
Nearby Weather Stations

Elev 6 ft 32.66 °N, 80.72 °W | Updated 37 minutes ago

Clear
Clear
68 °F
Feels Like 68 °F
N
6
Wind Variable Wind from ENE
Gusts 13.0 mph

Today
High -- | Low -- °F
--% Chance of Precip.
Yesterday
High -- | Low -- °F
Precip. -- in
7:38 AM 6:33 PM
Waxing Crescent, 45% visible
Pressure 29.97 in
Visibility 7.0 miles
Clouds Few 14000 ft
Dew Point 54 °F
Humidity 62%
Rainfall 0.00 in
Snow Depth Not available.
UV 6 out of 12
Pollen 2.40 out of 12
Air Quality Not available.
Flu Activity Not available.
METAR KNBC 301556Z 05004KT 7SM FEW140 21/16 A2998 RMK AO2 SLP149 WIND DATA ESTIMATED T02060156 $

More Conditions Fewer Conditions

Pressure 29.97 in
Visibility 7.0 miles
Clouds Few 14000 ft
Dew Point 54 °F
Humidity 62%
Rainfall 0.00 in
Snow Depth Not available.
UV 6 out of 12
Pollen 2.40 out of 12
Air Quality Not available.
Flu Activity Not available.
METAR KNBC 301556Z 05004KT 7SM FEW140 21/16 A2998 RMK AO2 SLP149 WIND DATA ESTIMATED T02060156 $

More Conditions Fewer Conditions

10-Day Weather Forecast

Almanac

Astronomy

Oct. 30, 2014 Rise Set
Actual Time
Civil Twilight
Nautical Twilight
Astronomical Twilight
Moon
Length of Visible Light
Length of Day
Tomorrow will be .
, % of the Moon is Illuminated

Today's Extremes

State Highs State Lows

Community

WunderPhotos

Upload Photos

1,766,394 photos uploaded!

WunderBlogs® & News

Nearby

Air Quality

  Air Quality AQ Index Pollutant
Not available.

Snow Depth

Station Depth Elevation

Earthquake Activity

City Distance Mag. Time & Date
Minimum magnitude displayed is 2.5.

Coastal Water Temperatures

Place Temperature

Nearby Weather Stations